createdAt,value
2022-11-09T00:01:02.956Z,99.90
2022-11-09T00:03:32.531Z,99.90
2022-11-09T00:06:01.694Z,99.90
2022-11-09T00:08:30.097Z,99.90
2022-11-09T00:11:04.288Z,99.90
2022-11-09T00:13:32.300Z,99.90
2022-11-09T00:16:02.048Z,99.90
2022-11-09T00:18:30.078Z,99.90
2022-11-09T00:20:59.257Z,99.90
2022-11-09T00:23:27.098Z,99.90
2022-11-09T00:25:54.925Z,99.90
2022-11-09T00:28:22.752Z,99.90
2022-11-09T00:30:50.580Z,99.90
2022-11-09T00:33:18.728Z,99.90
2022-11-09T00:35:46.765Z,99.90
2022-11-09T00:38:15.989Z,99.90
2022-11-09T00:40:43.812Z,99.90
2022-11-09T00:43:11.731Z,99.90
2022-11-09T00:45:40.664Z,99.90
2022-11-09T00:48:09.129Z,99.90
2022-11-09T00:50:36.983Z,99.90
2022-11-09T00:53:04.881Z,99.90
2022-11-09T00:55:34.076Z,99.90
2022-11-09T00:58:01.886Z,99.90
2022-11-09T01:00:29.725Z,99.90
2022-11-09T01:02:57.595Z,99.90
2022-11-09T01:05:25.458Z,99.90
2022-11-09T01:07:54.410Z,99.90
2022-11-09T01:10:22.285Z,99.90
2022-11-09T01:12:51.449Z,99.90
2022-11-09T01:15:19.405Z,99.90
2022-11-09T01:17:47.673Z,99.90
2022-11-09T01:20:16.058Z,99.90
2022-11-09T01:22:44.425Z,99.90
2022-11-09T01:25:12.231Z,99.90
2022-11-09T01:27:40.092Z,99.90
2022-11-09T01:30:10.167Z,99.90
2022-11-09T01:32:38.050Z,99.90
2022-11-09T01:35:06.767Z,99.90
2022-11-09T01:37:34.655Z,99.90
2022-11-09T01:40:02.522Z,99.90
2022-11-09T01:42:30.757Z,99.90
2022-11-09T01:45:26.470Z,99.90
2022-11-09T01:48:00.258Z,99.90
2022-11-09T01:50:36.096Z,99.90
2022-11-09T01:53:07.211Z,99.90
2022-11-09T01:55:35.326Z,99.90
2022-11-09T01:58:06.983Z,99.90
2022-11-09T02:00:38.981Z,99.90
2022-11-09T02:03:13.439Z,99.90
2022-11-09T02:05:42.545Z,99.90
2022-11-09T02:08:12.171Z,99.90
2022-11-09T02:10:45.678Z,99.90
2022-11-09T02:13:16.831Z,99.90
2022-11-09T02:15:46.332Z,99.90
2022-11-09T02:18:14.230Z,99.90
2022-11-09T02:20:48.443Z,99.90
2022-11-09T02:23:16.764Z,99.90
2022-11-09T02:25:49.660Z,99.90
2022-11-09T02:28:18.423Z,99.90
2022-11-09T02:30:50.400Z,99.90
2022-11-09T02:33:18.856Z,99.90
2022-11-09T02:35:48.271Z,99.90
2022-11-09T02:38:16.598Z,99.90
2022-11-09T02:40:49.305Z,99.90
2022-11-09T02:43:19.380Z,99.90
2022-11-09T02:45:47.488Z,99.90
2022-11-09T02:48:15.435Z,99.90
2022-11-09T02:50:43.343Z,99.90
2022-11-09T02:53:12.613Z,99.90
2022-11-09T02:55:40.433Z,99.90
2022-11-09T02:58:08.278Z,99.90
2022-11-09T03:00:36.171Z,99.90
2022-11-09T03:03:04.551Z,99.90
2022-11-09T03:05:32.422Z,99.90
2022-11-09T03:08:02.268Z,99.90
2022-11-09T03:10:31.549Z,99.90
2022-11-09T03:12:59.476Z,99.90
2022-11-09T03:15:27.409Z,99.90
2022-11-09T03:17:55.283Z,99.90
2022-11-09T03:20:23.232Z,99.90
2022-11-09T03:22:51.071Z,99.90
2022-11-09T03:25:18.938Z,99.90
2022-11-09T03:27:48.104Z,99.90
2022-11-09T03:30:18.935Z,99.90
2022-11-09T03:32:50.436Z,99.90
2022-11-09T03:35:18.765Z,99.90
2022-11-09T03:37:46.723Z,99.90
2022-11-09T03:40:14.678Z,99.90
2022-11-09T03:42:45.768Z,99.90
2022-11-09T03:45:15.780Z,99.90
2022-11-09T03:47:43.666Z,99.90
2022-11-09T03:50:12.920Z,99.90
2022-11-09T03:52:41.271Z,99.90
2022-11-09T03:55:09.986Z,99.90
2022-11-09T03:57:37.970Z,99.90
2022-11-09T04:00:07.765Z,99.90
2022-11-09T04:02:36.975Z,99.90
2022-11-09T04:05:05.459Z,99.90
2022-11-09T04:07:33.585Z,99.90
2022-11-09T04:10:01.493Z,99.90
2022-11-09T04:12:29.480Z,99.90
2022-11-09T04:14:57.350Z,99.90
2022-11-09T04:17:25.229Z,99.90
2022-11-09T04:19:54.403Z,99.90
2022-11-09T04:22:22.257Z,99.90
2022-11-09T04:24:50.194Z,99.90
2022-11-09T04:27:18.078Z,99.90
2022-11-09T04:29:45.928Z,99.90
2022-11-09T04:32:13.776Z,99.90
2022-11-09T04:34:42.135Z,99.90
2022-11-09T04:37:11.422Z,99.90
2022-11-09T04:39:39.243Z,99.90
2022-11-09T04:42:07.431Z,99.90
2022-11-09T04:44:35.245Z,99.90
2022-11-09T04:47:03.121Z,99.90
2022-11-09T04:49:30.955Z,99.90
2022-11-09T04:51:58.794Z,99.90
2022-11-09T04:54:28.024Z,99.90
2022-11-09T04:56:55.951Z,99.90
2022-11-09T04:59:23.793Z,99.90
2022-11-09T05:01:51.686Z,99.90
2022-11-09T05:04:19.587Z,99.90
2022-11-09T05:06:47.552Z,99.90
2022-11-09T05:09:15.430Z,99.90
2022-11-09T05:11:44.699Z,99.90
2022-11-09T05:14:12.547Z,99.90
2022-11-09T05:16:40.883Z,99.90
2022-11-09T05:19:08.843Z,99.90
2022-11-09T05:21:36.696Z,99.90
2022-11-09T05:24:03.888Z,99.90
2022-11-09T05:26:33.422Z,99.90
2022-11-09T05:29:04.361Z,99.90
2022-11-09T05:31:32.693Z,99.90
2022-11-09T05:34:01.263Z,99.90
2022-11-09T05:36:30.415Z,99.90
2022-11-09T05:38:58.619Z,99.90
2022-11-09T05:41:27.145Z,99.90
2022-11-09T05:43:55.079Z,99.90
2022-11-09T05:46:25.118Z,99.90
2022-11-09T05:48:52.992Z,99.90
2022-11-09T05:51:20.821Z,99.90
2022-11-09T05:53:48.691Z,99.90
2022-11-09T05:56:17.019Z,99.90
2022-11-09T05:58:44.941Z,99.90
2022-11-09T06:01:14.737Z,99.90
2022-11-09T06:03:44.557Z,99.90
2022-11-09T06:06:14.880Z,99.90
2022-11-09T06:08:42.747Z,99.90
2022-11-09T06:11:18.201Z,99.90
2022-11-09T06:13:50.862Z,99.90
2022-11-09T06:16:18.756Z,99.90
2022-11-09T06:18:48.022Z,99.90
2022-11-09T06:21:15.874Z,99.90
2022-11-09T06:23:43.735Z,99.90
2022-11-09T06:26:13.186Z,99.90
2022-11-09T06:28:42.291Z,99.90
2022-11-09T06:31:12.765Z,99.90
2022-11-09T06:33:40.680Z,99.90
2022-11-09T06:36:11.222Z,99.90
2022-11-09T06:38:39.166Z,99.90
2022-11-09T06:41:07.835Z,99.90
2022-11-09T06:43:35.790Z,99.90
2022-11-09T06:46:05.010Z,99.90
2022-11-09T06:48:32.944Z,99.90
2022-11-09T06:51:01.903Z,99.90
2022-11-09T06:53:32.292Z,99.90
2022-11-09T06:56:00.809Z,99.90
2022-11-09T06:58:29.648Z,99.90
2022-11-09T07:00:57.624Z,99.90
2022-11-09T07:03:25.839Z,99.90
2022-11-09T07:05:54.435Z,99.90
2022-11-09T07:08:22.347Z,99.90
2022-11-09T07:10:51.688Z,99.90
2022-11-09T07:13:20.212Z,99.90
2022-11-09T07:15:54.604Z,99.90
2022-11-09T07:18:22.476Z,99.90
2022-11-09T07:20:50.606Z,99.90
2022-11-09T07:23:19.142Z,99.90
2022-11-09T07:25:47.412Z,99.90
2022-11-09T07:28:16.909Z,99.90
2022-11-09T07:30:44.811Z,99.90
2022-11-09T07:33:15.501Z,99.90
2022-11-09T07:35:43.352Z,99.90
2022-11-09T07:38:11.579Z,99.90
2022-11-09T07:40:39.518Z,99.90
2022-11-09T07:43:08.284Z,99.90
2022-11-09T07:45:37.582Z,99.90
2022-11-09T07:48:07.994Z,99.90
2022-11-09T07:50:37.381Z,99.90
2022-11-09T07:53:07.046Z,99.90
2022-11-09T07:55:35.864Z,99.90
2022-11-09T07:58:06.174Z,99.90
2022-11-09T08:00:35.603Z,99.90
2022-11-09T08:03:05.232Z,99.90
2022-11-09T08:05:33.752Z,99.90
2022-11-09T08:08:03.372Z,99.90
2022-11-09T08:10:32.387Z,99.90
2022-11-09T08:13:02.495Z,99.90
2022-11-09T08:15:30.706Z,99.90
2022-11-09T08:18:01.247Z,99.90
2022-11-09T08:20:30.978Z,99.90
2022-11-09T08:23:03.688Z,99.90
2022-11-09T08:25:32.683Z,99.90
2022-11-09T08:28:00.842Z,99.90
2022-11-09T08:30:29.056Z,99.90
2022-11-09T08:32:56.994Z,99.90
2022-11-09T08:35:25.568Z,99.90
2022-11-09T08:37:55.519Z,99.90
2022-11-09T08:40:25.498Z,99.90
2022-11-09T08:42:54.435Z,99.90
2022-11-09T08:45:22.479Z,99.90
2022-11-09T08:47:50.398Z,99.90
2022-11-09T08:50:18.378Z,99.90
2022-11-09T08:52:46.212Z,99.90
2022-11-09T08:55:15.430Z,99.90
2022-11-09T08:57:43.318Z,99.90
2022-11-09T09:00:12.325Z,99.90
2022-11-09T09:02:40.229Z,99.90
2022-11-09T09:05:09.002Z,99.90
2022-11-09T09:07:36.931Z,99.90
2022-11-09T09:10:05.741Z,99.90
2022-11-09T09:12:35.180Z,99.90
2022-11-09T09:15:03.172Z,99.90
2022-11-09T09:17:31.006Z,99.90
2022-11-09T09:19:58.966Z,99.90
2022-11-09T09:22:26.981Z,99.90
2022-11-09T09:24:54.811Z,99.90
2022-11-09T09:27:22.734Z,99.90
2022-11-09T09:29:51.973Z,99.90
2022-11-09T09:32:19.810Z,99.90
2022-11-09T09:34:47.774Z,99.90
2022-11-09T09:37:17.207Z,99.90
2022-11-09T09:39:45.058Z,99.90
2022-11-09T09:42:17.205Z,99.90
2022-11-09T09:44:50.733Z,99.90
2022-11-09T09:47:24.713Z,99.90
2022-11-09T09:49:57.371Z,99.90
2022-11-09T09:52:34.500Z,99.90
2022-11-09T09:55:06.125Z,99.90
2022-11-09T09:57:40.514Z,99.90
2022-11-09T10:00:16.955Z,99.90
2022-11-09T10:02:46.196Z,99.90
2022-11-09T10:05:17.678Z,99.90
2022-11-09T10:07:52.897Z,99.90
2022-11-09T10:10:44.360Z,99.90
2022-11-09T10:13:30.823Z,99.90
2022-11-09T10:16:07.141Z,99.90
2022-11-09T10:18:47.460Z,99.90
2022-11-09T10:21:28.695Z,99.90
2022-11-09T10:24:09.950Z,99.90
2022-11-09T10:26:43.915Z,99.90
2022-11-09T10:29:22.392Z,99.90
2022-11-09T10:31:51.811Z,99.90
2022-11-09T10:34:25.177Z,99.90
2022-11-09T10:36:59.547Z,99.90
2022-11-09T10:39:33.809Z,99.90
2022-11-09T10:42:01.712Z,99.90
2022-11-09T10:44:29.561Z,99.90
2022-11-09T10:47:06.616Z,99.90
2022-11-09T10:49:36.390Z,99.90
2022-11-09T10:52:05.590Z,99.90
2022-11-09T10:54:36.973Z,99.90
2022-11-09T10:57:15.422Z,99.90
2022-11-09T10:59:50.310Z,99.90
2022-11-09T11:02:42.814Z,99.90
2022-11-09T11:05:42.044Z,99.90
2022-11-09T11:08:35.676Z,99.90
2022-11-09T11:11:35.360Z,99.90
2022-11-09T11:14:19.913Z,99.90
2022-11-09T11:16:50.743Z,99.90
2022-11-09T11:19:38.928Z,99.90
2022-11-09T11:22:22.525Z,99.90
2022-11-09T11:24:56.271Z,99.90
2022-11-09T11:27:29.506Z,99.90
2022-11-09T11:30:03.982Z,99.90
2022-11-09T11:32:32.300Z,99.90
2022-11-09T11:35:01.557Z,99.90
2022-11-09T11:37:44.164Z,99.90
2022-11-09T11:40:20.218Z,99.90
2022-11-09T11:43:13.521Z,99.90
2022-11-09T11:45:44.047Z,99.90
2022-11-09T11:48:47.182Z,99.90
2022-11-09T11:51:19.326Z,99.90
2022-11-09T11:54:02.229Z,99.90
2022-11-09T11:56:34.462Z,99.90
2022-11-09T11:59:26.362Z,99.90
2022-11-09T12:02:15.791Z,99.90
2022-11-09T12:05:24.209Z,99.90
2022-11-09T12:08:00.081Z,99.90
2022-11-09T12:10:43.043Z,99.90
2022-11-09T12:13:21.110Z,99.90
2022-11-09T12:15:58.833Z,99.90
2022-11-09T12:18:39.414Z,99.90
2022-11-09T12:21:16.591Z,99.90
2022-11-09T12:24:03.334Z,99.90
2022-11-09T12:27:04.763Z,99.90
2022-11-09T12:29:40.450Z,99.90
2022-11-09T12:32:20.586Z,98.00
2022-11-09T12:34:56.955Z,99.30
2022-11-09T12:37:29.544Z,99.90
2022-11-09T12:40:14.669Z,99.90
2022-11-09T12:42:50.400Z,99.90
2022-11-09T12:45:27.303Z,99.90
2022-11-09T12:47:58.910Z,99.90
2022-11-09T12:50:29.094Z,99.90
2022-11-09T12:52:57.382Z,99.90
2022-11-09T12:55:43.199Z,99.90
2022-11-09T12:58:29.585Z,99.90
2022-11-09T13:00:59.483Z,99.90
2022-11-09T13:03:30.697Z,99.90
2022-11-09T13:06:17.490Z,99.90
2022-11-09T13:08:58.303Z,99.90
2022-11-09T13:11:40.854Z,99.90
2022-11-09T13:14:40.362Z,99.90
2022-11-09T13:17:45.506Z,99.90
2022-11-09T13:20:55.266Z,99.90
2022-11-09T13:23:55.350Z,99.90
2022-11-09T13:26:26.405Z,98.80
2022-11-09T13:29:23.430Z,97.40
2022-11-09T13:32:31.308Z,98.20
2022-11-09T13:34:59.903Z,95.80
2022-11-09T13:37:54.679Z,95.30
2022-11-09T13:40:45.797Z,94.30
2022-11-09T13:43:23.207Z,94.30
2022-11-09T13:45:54.520Z,95.20
2022-11-09T13:48:40.477Z,95.80
2022-11-09T13:51:11.581Z,95.80
2022-11-09T13:53:57.523Z,95.70
2022-11-09T13:56:35.070Z,94.70
2022-11-09T13:59:11.087Z,95.80
2022-11-09T14:01:47.962Z,95.80
2022-11-09T14:04:28.813Z,98.60
2022-11-09T14:07:05.907Z,99.90
2022-11-09T14:09:45.238Z,99.90
2022-11-09T14:12:45.017Z,99.90
2022-11-09T14:15:23.870Z,99.90
2022-11-09T14:18:03.514Z,99.90
2022-11-09T14:20:41.878Z,99.90
2022-11-09T14:23:17.382Z,99.90
2022-11-09T14:25:46.042Z,99.90
2022-11-09T14:28:22.982Z,99.90
2022-11-09T14:30:51.028Z,99.90
2022-11-09T14:33:25.486Z,99.90
2022-11-09T14:35:57.257Z,99.90
2022-11-09T14:38:29.833Z,99.90
2022-11-09T14:40:57.748Z,99.90
2022-11-09T14:43:29.398Z,99.90
2022-11-09T14:46:01.010Z,99.90
2022-11-09T14:48:30.195Z,99.90
2022-11-09T14:51:01.499Z,99.90
2022-11-09T14:53:31.659Z,99.90
2022-11-09T14:56:03.185Z,99.90
2022-11-09T14:58:32.658Z,99.90
2022-11-09T15:01:17.777Z,99.90
2022-11-09T15:03:47.244Z,99.90
2022-11-09T15:06:18.799Z,99.90
2022-11-09T15:08:55.539Z,99.90
2022-11-09T15:11:35.318Z,99.90
2022-11-09T15:14:13.140Z,99.90
2022-11-09T15:16:41.483Z,99.90
2022-11-09T15:19:23.178Z,99.90
2022-11-09T15:21:52.835Z,99.90
2022-11-09T15:24:22.313Z,99.90
2022-11-09T15:26:52.889Z,99.90
2022-11-09T15:29:30.377Z,99.90
2022-11-09T15:32:00.199Z,99.90
2022-11-09T15:34:33.244Z,99.90
2022-11-09T15:37:02.552Z,99.90
2022-11-09T15:39:30.415Z,99.90
2022-11-09T15:41:58.562Z,99.90
2022-11-09T15:44:26.391Z,99.90
2022-11-09T15:46:55.003Z,99.90
2022-11-09T15:49:24.884Z,99.90
2022-11-09T15:51:54.166Z,99.90
2022-11-09T15:54:24.800Z,99.90
2022-11-09T15:56:53.209Z,99.90
2022-11-09T15:59:23.320Z,99.90
2022-11-09T16:01:51.416Z,99.90
2022-11-09T16:04:19.418Z,99.90
2022-11-09T16:06:47.576Z,99.90
2022-11-09T16:09:15.758Z,99.90
2022-11-09T16:11:44.947Z,99.90
2022-11-09T16:14:14.781Z,99.90
2022-11-09T16:16:42.643Z,99.90
2022-11-09T16:19:13.833Z,99.90
2022-11-09T16:21:41.836Z,99.90
2022-11-09T16:24:10.120Z,99.90
2022-11-09T16:26:37.935Z,99.90
2022-11-09T16:29:07.126Z,99.90
2022-11-09T16:31:50.947Z,99.90
2022-11-09T16:34:19.503Z,99.90
2022-11-09T16:36:52.485Z,99.90
2022-11-09T16:39:26.425Z,99.90
2022-11-09T16:41:54.599Z,99.90
2022-11-09T16:44:25.049Z,99.90
2022-11-09T16:46:53.102Z,99.90
2022-11-09T16:49:20.992Z,99.90
2022-11-09T16:51:48.796Z,99.90
2022-11-09T16:54:16.613Z,99.90
2022-11-09T16:56:44.854Z,99.90
2022-11-09T16:59:12.850Z,99.90
2022-11-09T17:01:42.091Z,99.90
2022-11-09T17:04:10.096Z,99.90
2022-11-09T17:06:37.964Z,99.90
2022-11-09T17:09:05.817Z,99.90
2022-11-09T17:11:33.731Z,99.90
2022-11-09T17:14:01.807Z,99.90
2022-11-09T17:16:29.684Z,99.90
2022-11-09T17:18:59.161Z,99.90
2022-11-09T17:21:29.036Z,99.90
2022-11-09T17:23:58.005Z,99.90
2022-11-09T17:26:26.872Z,99.90
2022-11-09T17:28:54.937Z,99.90
2022-11-09T17:31:26.434Z,99.90
2022-11-09T17:33:58.445Z,99.90
2022-11-09T17:36:57.333Z,99.90
2022-11-09T17:39:18.045Z,99.90
2022-11-09T17:41:45.904Z,99.90
2022-11-09T17:44:13.727Z,99.90
2022-11-09T17:46:42.008Z,99.90
2022-11-09T17:49:10.707Z,99.90
2022-11-09T17:51:39.976Z,99.90
2022-11-09T17:54:07.881Z,99.90
2022-11-09T17:56:35.765Z,99.90
2022-11-09T17:59:05.683Z,99.90
2022-11-09T18:01:39.368Z,99.90
2022-11-09T18:04:10.017Z,99.90
2022-11-09T18:06:39.579Z,99.90
2022-11-09T18:11:56.119Z,99.90
2022-11-09T18:14:23.996Z,99.90
2022-11-09T18:16:51.855Z,99.90
2022-11-09T18:19:19.691Z,99.90
2022-11-09T18:21:48.884Z,99.90
2022-11-09T18:24:16.919Z,99.90
2022-11-09T18:26:44.778Z,99.90
2022-11-09T18:29:12.740Z,99.90
2022-11-09T18:31:40.578Z,99.90
2022-11-09T18:34:08.381Z,99.90
2022-11-09T18:36:36.290Z,99.90
2022-11-09T18:39:05.594Z,99.90
2022-11-09T18:41:33.696Z,99.90
2022-11-09T18:44:01.507Z,99.90
2022-11-09T18:46:30.773Z,99.90
2022-11-09T18:48:58.649Z,99.90
2022-11-09T18:51:26.531Z,99.90
2022-11-09T18:53:54.685Z,99.90
2022-11-09T18:56:25.844Z,99.90
2022-11-09T18:58:55.572Z,99.90
2022-11-09T19:01:25.473Z,99.90
2022-11-09T19:03:58.980Z,99.90
2022-11-09T19:06:28.207Z,99.90
2022-11-09T19:09:13.949Z,99.90
2022-11-09T19:11:43.161Z,99.90
2022-11-09T19:14:11.545Z,99.90
2022-11-09T19:16:39.534Z,99.90
2022-11-09T19:19:07.604Z,99.90
2022-11-09T19:21:40.368Z,99.90
2022-11-09T19:24:12.080Z,99.90
2022-11-09T19:26:40.030Z,99.90
2022-11-09T19:29:10.283Z,99.90
2022-11-09T19:31:42.882Z,99.90
2022-11-09T19:34:10.810Z,99.90
2022-11-09T19:36:38.716Z,99.90
2022-11-09T19:39:06.823Z,99.90
2022-11-09T19:41:35.033Z,99.90
2022-11-09T19:44:03.411Z,99.90
2022-11-09T19:46:35.191Z,99.90
2022-11-09T19:49:05.282Z,99.90
2022-11-09T19:51:34.596Z,99.90
2022-11-09T19:54:04.046Z,99.90
2022-11-09T19:56:33.426Z,99.90
2022-11-09T19:59:02.729Z,99.90
2022-11-09T20:01:32.061Z,99.90
2022-11-09T20:04:05.160Z,99.90
2022-11-09T20:06:37.767Z,99.90
2022-11-09T20:09:06.180Z,99.90
2022-11-09T20:11:51.962Z,99.90
2022-11-09T20:14:21.074Z,99.90
2022-11-09T20:16:50.979Z,99.90
2022-11-09T20:19:18.971Z,99.90
2022-11-09T20:21:46.958Z,99.90
2022-11-09T20:24:17.939Z,99.90
2022-11-09T20:26:45.854Z,99.90
2022-11-09T20:29:13.687Z,99.90
2022-11-09T20:31:41.607Z,99.90
2022-11-09T20:34:10.819Z,99.90
2022-11-09T20:36:38.718Z,99.90
2022-11-09T20:39:06.801Z,99.90
2022-11-09T20:41:35.845Z,99.90
2022-11-09T20:44:03.943Z,99.90
2022-11-09T20:46:36.211Z,99.90
2022-11-09T20:49:04.986Z,99.90
2022-11-09T20:51:34.153Z,99.90
2022-11-09T20:54:06.838Z,99.90
2022-11-09T20:56:35.788Z,99.90
2022-11-09T20:59:03.917Z,99.90
2022-11-09T21:01:31.861Z,99.90
2022-11-09T21:04:00.850Z,99.90
2022-11-09T21:06:28.840Z,99.90
2022-11-09T21:09:00.775Z,99.90
2022-11-09T21:11:35.546Z,99.90
2022-11-09T21:14:04.115Z,99.90
2022-11-09T21:16:31.975Z,99.90
2022-11-09T21:18:59.894Z,99.90
2022-11-09T21:21:32.071Z,99.90
2022-11-09T21:24:23.095Z,99.90
2022-11-09T21:27:09.630Z,99.90
2022-11-09T21:29:52.644Z,99.90
2022-11-09T21:32:21.357Z,99.90
2022-11-09T21:34:49.763Z,99.90
2022-11-09T21:37:25.190Z,99.90
2022-11-09T21:39:54.384Z,99.90
2022-11-09T21:42:22.454Z,99.90
2022-11-09T21:45:06.139Z,99.90
2022-11-09T21:47:33.956Z,99.90
2022-11-09T21:50:12.756Z,99.90
2022-11-09T21:52:50.183Z,99.90
2022-11-09T21:55:19.488Z,99.90
2022-11-09T21:57:49.319Z,99.90
2022-11-09T22:00:18.308Z,99.90
2022-11-09T22:02:46.181Z,99.90
2022-11-09T22:05:15.705Z,99.90
2022-11-09T22:07:46.784Z,99.90
2022-11-09T22:10:14.683Z,99.90
2022-11-09T22:13:01.478Z,99.90
2022-11-09T22:15:47.450Z,99.90
2022-11-09T22:18:36.332Z,99.90
2022-11-09T22:21:03.372Z,99.90
2022-11-09T22:23:31.204Z,99.90
2022-11-09T22:26:02.092Z,99.90
2022-11-09T22:28:33.490Z,99.90
2022-11-09T22:31:02.041Z,99.90
2022-11-09T22:33:30.796Z,99.90
2022-11-09T22:36:03.775Z,99.90
2022-11-09T22:38:33.375Z,99.90
2022-11-09T22:41:02.462Z,99.90
2022-11-09T22:43:34.082Z,99.90
2022-11-09T22:46:04.611Z,99.90
2022-11-09T22:48:33.085Z,99.90
2022-11-09T22:51:01.383Z,99.90
2022-11-09T22:53:29.352Z,99.90
2022-11-09T22:55:59.070Z,99.90
2022-11-09T22:58:28.010Z,99.90
2022-11-09T23:01:05.185Z,99.90
2022-11-09T23:03:33.082Z,99.90
2022-11-09T23:06:04.870Z,99.90
2022-11-09T23:08:37.705Z,99.90
2022-11-09T23:11:06.831Z,99.90
2022-11-09T23:13:35.567Z,99.90
2022-11-09T23:16:07.505Z,99.90
2022-11-09T23:18:53.014Z,99.90
2022-11-09T23:21:21.450Z,99.90
2022-11-09T23:23:49.666Z,99.90
2022-11-09T23:26:16.901Z,99.90
2022-11-09T23:28:44.824Z,99.90
2022-11-09T23:31:16.802Z,99.90
2022-11-09T23:33:44.655Z,99.90
2022-11-09T23:36:12.482Z,99.90
2022-11-09T23:38:41.436Z,99.90
2022-11-09T23:41:10.681Z,99.90
2022-11-09T23:43:38.900Z,99.90
2022-11-09T23:46:08.988Z,99.90
2022-11-09T23:48:38.717Z,99.90
2022-11-09T23:51:07.695Z,99.90
2022-11-09T23:53:35.736Z,99.90
2022-11-09T23:56:04.951Z,99.90
2022-11-09T23:58:33.407Z,99.90
